sensor_id;sensor_type;location;lat;lon;timestamp;pressure;altitude;pressure_sealevel;temperature;humidity
12536;BME280;6334;48.696;2.114;2024-03-22T00:00:10;100738.91;;;13.50;68.30
12536;BME280;6334;48.696;2.114;2024-03-22T00:02:40;100734.77;;;13.40;68.32
12536;BME280;6334;48.696;2.114;2024-03-22T00:05:10;100736.63;;;13.37;68.67
12536;BME280;6334;48.696;2.114;2024-03-22T00:07:42;100737.21;;;13.07;69.40
12536;BME280;6334;48.696;2.114;2024-03-22T00:12:48;100737.03;;;13.29;68.87
12536;BME280;6334;48.696;2.114;2024-03-22T00:15:17;100739.13;;;13.30;69.23
12536;BME280;6334;48.696;2.114;2024-03-22T00:17:48;100739.58;;;13.25;68.37
12536;BME280;6334;48.696;2.114;2024-03-22T00:20:19;100730.45;;;13.14;68.96
12536;BME280;6334;48.696;2.114;2024-03-22T00:22:49;100734.09;;;13.24;69.21
12536;BME280;6334;48.696;2.114;2024-03-22T00:25:18;100737.61;;;12.98;69.94
12536;BME280;6334;48.696;2.114;2024-03-22T00:27:48;100733.47;;;13.11;69.74
12536;BME280;6334;48.696;2.114;2024-03-22T00:30:20;100733.93;;;13.00;70.47
12536;BME280;6334;48.696;2.114;2024-03-22T00:32:50;100729.09;;;13.15;69.82
12536;BME280;6334;48.696;2.114;2024-03-22T00:35:20;100726.73;;;13.18;69.33
12536;BME280;6334;48.696;2.114;2024-03-22T00:37:51;100717.97;;;13.00;70.17
12536;BME280;6334;48.696;2.114;2024-03-22T00:40:22;100713.86;;;13.02;70.27
12536;BME280;6334;48.696;2.114;2024-03-22T00:42:52;100713.12;;;12.91;70.44
12536;BME280;6334;48.696;2.114;2024-03-22T00:45:26;100581.14;;;12.22;69.54
12536;BME280;6334;48.696;2.114;2024-03-22T00:47:57;100708.17;;;12.88;70.13
12536;BME280;6334;48.696;2.114;2024-03-22T00:50:28;100702.88;;;12.99;70.66
12536;BME280;6334;48.696;2.114;2024-03-22T00:52:59;100699.13;;;13.04;69.64
12536;BME280;6334;48.696;2.114;2024-03-22T00:55:29;100704.31;;;13.05;70.29
12536;BME280;6334;48.696;2.114;2024-03-22T00:57:59;100701.50;;;12.87;71.51
12536;BME280;6334;48.696;2.114;2024-03-22T01:00:29;100699.47;;;12.89;70.47
12536;BME280;6334;48.696;2.114;2024-03-22T01:02:59;100702.28;;;12.91;71.82
12536;BME280;6334;48.696;2.114;2024-03-22T01:05:29;100696.72;;;12.96;70.78
12536;BME280;6334;48.696;2.114;2024-03-22T01:07:59;100704.28;;;12.83;71.50
12536;BME280;6334;48.696;2.114;2024-03-22T01:10:29;100701.59;;;12.93;71.37
12536;BME280;6334;48.696;2.114;2024-03-22T01:12:59;100693.64;;;12.94;71.49
12536;BME280;6334;48.696;2.114;2024-03-22T01:15:29;100690.41;;;13.00;71.25
12536;BME280;6334;48.696;2.114;2024-03-22T01:17:59;100685.09;;;12.89;71.77
12536;BME280;6334;48.696;2.114;2024-03-22T01:20:30;100680.92;;;12.90;71.44
12536;BME280;6334;48.696;2.114;2024-03-22T01:23:01;100676.63;;;12.92;71.36
12536;BME280;6334;48.696;2.114;2024-03-22T01:25:31;100679.59;;;12.89;71.99
12536;BME280;6334;48.696;2.114;2024-03-22T01:28:02;100677.13;;;12.92;71.68
12536;BME280;6334;48.696;2.114;2024-03-22T01:30:31;100678.67;;;12.72;72.35
12536;BME280;6334;48.696;2.114;2024-03-22T01:33:01;100672.86;;;12.78;72.22
12536;BME280;6334;48.696;2.114;2024-03-22T01:35:31;100672.16;;;12.81;71.47
12536;BME280;6334;48.696;2.114;2024-03-22T01:38:01;100671.84;;;12.87;71.60
12536;BME280;6334;48.696;2.114;2024-03-22T01:40:32;100668.37;;;12.85;71.42
12536;BME280;6334;48.696;2.114;2024-03-22T01:43:02;100667.50;;;12.72;72.01
12536;BME280;6334;48.696;2.114;2024-03-22T01:45:32;100666.81;;;12.66;71.66
12536;BME280;6334;48.696;2.114;2024-03-22T01:48:01;100667.32;;;12.72;72.34
12536;BME280;6334;48.696;2.114;2024-03-22T01:50:35;100666.23;;;12.48;72.50
12536;BME280;6334;48.696;2.114;2024-03-22T01:53:05;100666.39;;;12.57;73.61
12536;BME280;6334;48.696;2.114;2024-03-22T01:55:37;100658.05;;;12.67;72.80
12536;BME280;6334;48.696;2.114;2024-03-22T01:58:08;100657.97;;;12.66;72.61
12536;BME280;6334;48.696;2.114;2024-03-22T02:00:39;100662.61;;;12.53;73.58
12536;BME280;6334;48.696;2.114;2024-03-22T02:03:09;100656.15;;;12.49;73.55
12536;BME280;6334;48.696;2.114;2024-03-22T02:05:40;100656.71;;;12.23;74.70
12536;BME280;6334;48.696;2.114;2024-03-22T02:10:44;100652.97;;;12.41;73.67
12536;BME280;6334;48.696;2.114;2024-03-22T02:13:16;100652.29;;;12.66;73.11
12536;BME280;6334;48.696;2.114;2024-03-22T02:15:47;100648.95;;;12.66;74.42
12536;BME280;6334;48.696;2.114;2024-03-22T02:20:51;100640.87;;;12.55;74.50
12536;BME280;6334;48.696;2.114;2024-03-22T02:23:41;100633.66;;;12.42;74.43
12536;BME280;6334;48.696;2.114;2024-03-22T02:25:57;100637.84;;;12.44;74.73
12536;BME280;6334;48.696;2.114;2024-03-22T02:28:28;100633.08;;;12.25;74.35
12536;BME280;6334;48.696;2.114;2024-03-22T02:30:59;100629.08;;;12.26;74.69
12536;BME280;6334;48.696;2.114;2024-03-22T02:33:29;100623.13;;;12.20;74.62
12536;BME280;6334;48.696;2.114;2024-03-22T02:36:00;100619.84;;;12.04;74.66
12536;BME280;6334;48.696;2.114;2024-03-22T02:41:04;100613.55;;;12.35;74.33
12536;BME280;6334;48.696;2.114;2024-03-22T02:43:34;100610.15;;;12.40;75.50
12536;BME280;6334;48.696;2.114;2024-03-22T02:46:04;100606.21;;;12.43;74.34
12536;BME280;6334;48.696;2.114;2024-03-22T02:48:34;100604.45;;;12.34;74.26
12536;BME280;6334;48.696;2.114;2024-03-22T02:51:05;100602.78;;;12.25;74.68
12536;BME280;6334;48.696;2.114;2024-03-22T02:53:36;100595.61;;;12.43;74.46
12536;BME280;6334;48.696;2.114;2024-03-22T02:56:06;100592.17;;;12.46;74.03
12536;BME280;6334;48.696;2.114;2024-03-22T02:58:38;100592.57;;;12.24;74.83
12536;BME280;6334;48.696;2.114;2024-03-22T03:01:08;100593.64;;;12.32;76.10
12536;BME280;6334;48.696;2.114;2024-03-22T03:03:39;100588.03;;;12.42;74.73
12536;BME280;6334;48.696;2.114;2024-03-22T03:06:14;100589.41;;;12.38;75.50
12536;BME280;6334;48.696;2.114;2024-03-22T03:08:44;100584.91;;;12.30;75.40
12536;BME280;6334;48.696;2.114;2024-03-22T03:11:14;100589.37;;;12.34;74.59
12536;BME280;6334;48.696;2.114;2024-03-22T03:13:44;100577.20;;;12.09;75.52
12536;BME280;6334;48.696;2.114;2024-03-22T03:16:15;100571.06;;;12.21;75.46
12536;BME280;6334;48.696;2.114;2024-03-22T03:18:45;100570.42;;;12.18;76.65
12536;BME280;6334;48.696;2.114;2024-03-22T03:21:16;100566.70;;;12.38;75.69
12536;BME280;6334;48.696;2.114;2024-03-22T03:23:47;100567.38;;;12.45;74.27
12536;BME280;6334;48.696;2.114;2024-03-22T03:26:18;100562.95;;;12.44;75.69
12536;BME280;6334;48.696;2.114;2024-03-22T03:28:49;100560.91;;;12.42;75.72
12536;BME280;6334;48.696;2.114;2024-03-22T03:31:20;100563.25;;;12.40;74.53
12536;BME280;6334;48.696;2.114;2024-03-22T03:33:50;100555.45;;;12.36;74.81
12536;BME280;6334;48.696;2.114;2024-03-22T03:36:21;100553.30;;;12.12;75.58
12536;BME280;6334;48.696;2.114;2024-03-22T03:41:25;100547.31;;;12.02;75.78
12536;BME280;6334;48.696;2.114;2024-03-22T03:43:55;100548.38;;;12.05;76.44
12536;BME280;6334;48.696;2.114;2024-03-22T03:46:25;100541.89;;;12.02;75.27
12536;BME280;6334;48.696;2.114;2024-03-22T03:48:56;100540.06;;;11.92;75.67
12536;BME280;6334;48.696;2.114;2024-03-22T03:51:27;100540.02;;;12.21;75.50
12536;BME280;6334;48.696;2.114;2024-03-22T03:53:58;100540.56;;;11.89;75.96
12536;BME280;6334;48.696;2.114;2024-03-22T03:56:28;100536.89;;;12.03;75.83
12536;BME280;6334;48.696;2.114;2024-03-22T03:58:58;100538.16;;;12.09;76.08
12536;BME280;6334;48.696;2.114;2024-03-22T04:01:29;100530.95;;;12.02;76.08
12536;BME280;6334;48.696;2.114;2024-03-22T04:04:00;100517.27;;;12.12;76.57
12536;BME280;6334;48.696;2.114;2024-03-22T04:06:30;100525.59;;;12.22;75.76
12536;BME280;6334;48.696;2.114;2024-03-22T04:11:35;100521.64;;;12.01;75.79
12536;BME280;6334;48.696;2.114;2024-03-22T04:14:06;100517.65;;;12.00;76.37
12536;BME280;6334;48.696;2.114;2024-03-22T04:16:36;100509.59;;;11.95;75.86
12536;BME280;6334;48.696;2.114;2024-03-22T04:19:06;100509.34;;;11.84;76.98
12536;BME280;6334;48.696;2.114;2024-03-22T04:21:37;100508.72;;;12.17;75.12
12536;BME280;6334;48.696;2.114;2024-03-22T04:24:06;100502.44;;;12.10;75.47
12536;BME280;6334;48.696;2.114;2024-03-22T04:26:37;100501.37;;;12.09;75.13
12536;BME280;6334;48.696;2.114;2024-03-22T04:29:08;100508.11;;;12.01;74.81
12536;BME280;6334;48.696;2.114;2024-03-22T04:31:38;100504.86;;;11.95;74.89
12536;BME280;6334;48.696;2.114;2024-03-22T04:34:07;100502.15;;;11.98;75.10
12536;BME280;6334;48.696;2.114;2024-03-22T04:36:39;100499.88;;;11.99;74.74
12536;BME280;6334;48.696;2.114;2024-03-22T04:39:10;100499.88;;;11.81;75.42
12536;BME280;6334;48.696;2.114;2024-03-22T04:41:40;100501.45;;;11.89;75.08
12536;BME280;6334;48.696;2.114;2024-03-22T04:44:09;100500.23;;;11.87;74.07
12536;BME280;6334;48.696;2.114;2024-03-22T04:46:40;100497.41;;;11.68;75.25
12536;BME280;6334;48.696;2.114;2024-03-22T04:49:10;100496.75;;;11.57;75.44
12536;BME280;6334;48.696;2.114;2024-03-22T04:51:40;100498.69;;;11.66;74.90
12536;BME280;6334;48.696;2.114;2024-03-22T04:54:11;100500.50;;;11.57;75.46
12536;BME280;6334;48.696;2.114;2024-03-22T04:56:41;100492.38;;;11.52;75.95
12536;BME280;6334;48.696;2.114;2024-03-22T05:01:46;100494.27;;;11.43;76.04
12536;BME280;6334;48.696;2.114;2024-03-22T05:04:17;100496.66;;;11.48;75.35
12536;BME280;6334;48.696;2.114;2024-03-22T05:06:47;100485.87;;;11.43;75.85
12536;BME280;6334;48.696;2.114;2024-03-22T05:09:18;100484.98;;;11.19;76.25
12536;BME280;6334;48.696;2.114;2024-03-22T05:11:51;100481.24;;;11.38;75.73
12536;BME280;6334;48.696;2.114;2024-03-22T05:14:21;100482.18;;;11.47;76.01
12536;BME280;6334;48.696;2.114;2024-03-22T05:16:54;100484.73;;;11.31;76.38
12536;BME280;6334;48.696;2.114;2024-03-22T05:21:59;100484.06;;;11.51;76.14
12536;BME280;6334;48.696;2.114;2024-03-22T05:24:29;100487.45;;;11.52;75.23
12536;BME280;6334;48.696;2.114;2024-03-22T05:27:00;100483.46;;;11.62;74.88
12536;BME280;6334;48.696;2.114;2024-03-22T05:29:30;100486.58;;;11.48;75.28
12536;BME280;6334;48.696;2.114;2024-03-22T05:32:00;100488.11;;;11.34;75.52
12536;BME280;6334;48.696;2.114;2024-03-22T05:34:29;100488.95;;;11.31;76.61
12536;BME280;6334;48.696;2.114;2024-03-22T05:36:59;100488.37;;;11.18;76.40
12536;BME280;6334;48.696;2.114;2024-03-22T05:42:05;100487.53;;;10.97;77.60
12536;BME280;6334;48.696;2.114;2024-03-22T05:44:36;100488.79;;;10.68;77.78
12536;BME280;6334;48.696;2.114;2024-03-22T05:47:06;100484.13;;;10.82;77.49
12536;BME280;6334;48.696;2.114;2024-03-22T05:49:37;100482.33;;;10.88;77.52
12536;BME280;6334;48.696;2.114;2024-03-22T05:52:07;100483.20;;;10.84;77.22
12536;BME280;6334;48.696;2.114;2024-03-22T05:54:36;100481.37;;;10.97;76.93
12536;BME280;6334;48.696;2.114;2024-03-22T05:57:07;100485.78;;;11.23;75.98
12536;BME280;6334;48.696;2.114;2024-03-22T05:59:41;100485.98;;;10.93;77.35
12536;BME280;6334;48.696;2.114;2024-03-22T06:02:11;100479.48;;;11.18;76.30
12536;BME280;6334;48.696;2.114;2024-03-22T06:04:41;100482.03;;;11.13;76.62
12536;BME280;6334;48.696;2.114;2024-03-22T06:07:12;100481.80;;;11.11;76.58
12536;BME280;6334;48.696;2.114;2024-03-22T06:12:18;100477.86;;;11.22;78.13
12536;BME280;6334;48.696;2.114;2024-03-22T06:14:48;100478.10;;;11.24;77.10
12536;BME280;6334;48.696;2.114;2024-03-22T06:17:19;100473.45;;;11.15;77.61
12536;BME280;6334;48.696;2.114;2024-03-22T06:19:51;100469.64;;;11.30;77.67
12536;BME280;6334;48.696;2.114;2024-03-22T06:22:22;100474.64;;;11.31;77.42
12536;BME280;6334;48.696;2.114;2024-03-22T06:24:54;100474.41;;;11.50;77.28
12536;BME280;6334;48.696;2.114;2024-03-22T06:27:25;100478.89;;;11.43;76.44
12536;BME280;6334;48.696;2.114;2024-03-22T06:29:57;100477.98;;;11.41;77.50
12536;BME280;6334;48.696;2.114;2024-03-22T06:32:27;100476.04;;;11.44;77.88
12536;BME280;6334;48.696;2.114;2024-03-22T06:34:57;100480.52;;;11.38;77.52
12536;BME280;6334;48.696;2.114;2024-03-22T06:37:29;100477.42;;;11.28;78.36
12536;BME280;6334;48.696;2.114;2024-03-22T06:39:59;100475.13;;;11.23;78.46
12536;BME280;6334;48.696;2.114;2024-03-22T06:42:30;100471.08;;;11.27;78.58
12536;BME280;6334;48.696;2.114;2024-03-22T06:45:00;100473.34;;;11.58;77.75
12536;BME280;6334;48.696;2.114;2024-03-22T06:47:30;100473.03;;;12.21;86.58
12536;BME280;6334;48.696;2.114;2024-03-22T06:50:00;100469.72;;;11.12;77.06
12536;BME280;6334;48.696;2.114;2024-03-22T06:52:31;100463.05;;;11.33;76.99
12536;BME280;6334;48.696;2.114;2024-03-22T06:55:01;100463.95;;;11.63;77.63
12536;BME280;6334;48.696;2.114;2024-03-22T06:57:32;100464.37;;;11.78;77.90
12536;BME280;6334;48.696;2.114;2024-03-22T07:00:02;100471.23;;;11.29;80.35
12536;BME280;6334;48.696;2.114;2024-03-22T07:02:33;100468.75;;;11.06;80.24
12536;BME280;6334;48.696;2.114;2024-03-22T07:05:03;100467.73;;;11.40;80.09
12536;BME280;6334;48.696;2.114;2024-03-22T07:07:34;100463.04;;;11.33;79.89
12536;BME280;6334;48.696;2.114;2024-03-22T07:10:04;100461.34;;;11.65;78.59
12536;BME280;6334;48.696;2.114;2024-03-22T07:12:33;100459.53;;;11.91;79.09
12536;BME280;6334;48.696;2.114;2024-03-22T07:15:03;100458.23;;;12.10;77.49
12536;BME280;6334;48.696;2.114;2024-03-22T07:17:32;100457.83;;;12.01;78.24
12536;BME280;6334;48.696;2.114;2024-03-22T07:20:02;100455.67;;;12.09;77.98
12536;BME280;6334;48.696;2.114;2024-03-22T07:22:32;100458.65;;;12.18;78.75
12536;BME280;6334;48.696;2.114;2024-03-22T07:25:01;100452.76;;;12.36;77.99
12536;BME280;6334;48.696;2.114;2024-03-22T07:27:31;100448.41;;;12.01;80.52
12536;BME280;6334;48.696;2.114;2024-03-22T07:30:00;100450.09;;;12.08;80.77
12536;BME280;6334;48.696;2.114;2024-03-22T07:32:30;100447.92;;;12.23;79.43
12536;BME280;6334;48.696;2.114;2024-03-22T07:34:59;100445.41;;;12.29;81.15
12536;BME280;6334;48.696;2.114;2024-03-22T07:37:29;100443.00;;;12.21;78.42
12536;BME280;6334;48.696;2.114;2024-03-22T07:39:59;100439.50;;;12.43;79.46
12536;BME280;6334;48.696;2.114;2024-03-22T07:42:28;100437.37;;;12.51;78.21
12536;BME280;6334;48.696;2.114;2024-03-22T07:44:58;100441.02;;;12.46;78.66
12536;BME280;6334;48.696;2.114;2024-03-22T07:47:28;100439.47;;;12.38;78.52
12536;BME280;6334;48.696;2.114;2024-03-22T07:49:59;100439.44;;;12.52;76.53
12536;BME280;6334;48.696;2.114;2024-03-22T07:52:29;100441.08;;;12.56;76.12
12536;BME280;6334;48.696;2.114;2024-03-22T07:54:58;100441.34;;;12.54;75.91
12536;BME280;6334;48.696;2.114;2024-03-22T07:57:28;100437.56;;;12.73;75.12
12536;BME280;6334;48.696;2.114;2024-03-22T07:59:57;100445.52;;;12.61;75.65
12536;BME280;6334;48.696;2.114;2024-03-22T08:02:27;100443.03;;;12.76;75.78
12536;BME280;6334;48.696;2.114;2024-03-22T08:04:56;100435.23;;;12.89;74.61
12536;BME280;6334;48.696;2.114;2024-03-22T08:07:27;100433.75;;;12.77;75.00
12536;BME280;6334;48.696;2.114;2024-03-22T08:09:56;100429.96;;;12.74;76.25
12536;BME280;6334;48.696;2.114;2024-03-22T08:12:26;100426.00;;;12.77;76.78
12536;BME280;6334;48.696;2.114;2024-03-22T08:14:56;100424.56;;;12.89;77.04
12536;BME280;6334;48.696;2.114;2024-03-22T08:17:26;100423.80;;;12.95;77.58
12536;BME280;6334;48.696;2.114;2024-03-22T08:19:57;100421.48;;;12.99;77.25
12536;BME280;6334;48.696;2.114;2024-03-22T08:22:27;100420.55;;;13.00;77.61
12536;BME280;6334;48.696;2.114;2024-03-22T08:24:59;100420.88;;;13.22;76.28
12536;BME280;6334;48.696;2.114;2024-03-22T08:27:29;100414.09;;;13.03;77.11
12536;BME280;6334;48.696;2.114;2024-03-22T08:30:00;100420.47;;;13.21;75.92
12536;BME280;6334;48.696;2.114;2024-03-22T08:32:30;100420.97;;;13.21;75.74
12536;BME280;6334;48.696;2.114;2024-03-22T08:35:00;100421.44;;;13.31;75.70
12536;BME280;6334;48.696;2.114;2024-03-22T08:37:31;100420.66;;;13.30;76.37
12536;BME280;6334;48.696;2.114;2024-03-22T08:40:00;100411.16;;;13.44;75.49
12536;BME280;6334;48.696;2.114;2024-03-22T08:42:30;100409.77;;;13.51;75.36
12536;BME280;6334;48.696;2.114;2024-03-22T08:45:01;100409.66;;;13.54;75.54
12536;BME280;6334;48.696;2.114;2024-03-22T08:47:31;100405.41;;;13.43;76.34
12536;BME280;6334;48.696;2.114;2024-03-22T08:50:03;100400.94;;;13.60;76.06
12536;BME280;6334;48.696;2.114;2024-03-22T08:52:33;100398.50;;;13.65;75.96
12536;BME280;6334;48.696;2.114;2024-03-22T08:55:03;100396.80;;;13.67;75.86
12536;BME280;6334;48.696;2.114;2024-03-22T08:57:33;100395.39;;;13.79;76.29
12536;BME280;6334;48.696;2.114;2024-03-22T09:00:02;100386.95;;;13.79;76.79
12536;BME280;6334;48.696;2.114;2024-03-22T09:02:31;100395.16;;;13.77;76.92
12536;BME280;6334;48.696;2.114;2024-03-22T09:05:02;100393.66;;;13.95;76.75
12536;BME280;6334;48.696;2.114;2024-03-22T09:07:32;100390.00;;;13.76;77.43
12536;BME280;6334;48.696;2.114;2024-03-22T09:10:12;100393.58;;;13.94;77.03
12536;BME280;6334;48.696;2.114;2024-03-22T09:12:42;100391.18;;;13.97;76.54
12536;BME280;6334;48.696;2.114;2024-03-22T09:15:13;100385.27;;;14.20;76.73
12536;BME280;6334;48.696;2.114;2024-03-22T09:17:43;100382.09;;;13.92;77.33
12536;BME280;6334;48.696;2.114;2024-03-22T09:20:13;100385.56;;;13.90;78.16
12536;BME280;6334;48.696;2.114;2024-03-22T09:22:44;100388.11;;;14.28;75.56
12536;BME280;6334;48.696;2.114;2024-03-22T09:25:14;100382.89;;;14.41;74.57
12536;BME280;6334;48.696;2.114;2024-03-22T09:27:45;100375.96;;;14.17;75.24
12536;BME280;6334;48.696;2.114;2024-03-22T09:30:15;100373.22;;;14.40;74.47
12536;BME280;6334;48.696;2.114;2024-03-22T09:32:46;100374.43;;;14.49;74.43
12536;BME280;6334;48.696;2.114;2024-03-22T09:35:16;100374.75;;;14.45;74.82
12536;BME280;6334;48.696;2.114;2024-03-22T09:37:47;100369.77;;;14.74;73.79
12536;BME280;6334;48.696;2.114;2024-03-22T09:40:17;100367.22;;;14.82;73.18
12536;BME280;6334;48.696;2.114;2024-03-22T09:42:47;100366.44;;;14.77;73.83
12536;BME280;6334;48.696;2.114;2024-03-22T09:45:17;100366.35;;;14.70;73.90
12536;BME280;6334;48.696;2.114;2024-03-22T09:47:48;100361.03;;;14.53;74.24
12536;BME280;6334;48.696;2.114;2024-03-22T09:50:17;100360.66;;;14.73;73.93
12536;BME280;6334;48.696;2.114;2024-03-22T09:52:48;100364.42;;;15.02;73.01
12536;BME280;6334;48.696;2.114;2024-03-22T09:55:22;100352.86;;;15.11;73.24
12536;BME280;6334;48.696;2.114;2024-03-22T09:57:52;100360.46;;;15.35;72.58
12536;BME280;6334;48.696;2.114;2024-03-22T10:00:22;100360.60;;;15.33;71.73
12536;BME280;6334;48.696;2.114;2024-03-22T10:02:53;100355.81;;;15.30;72.78
12536;BME280;6334;48.696;2.114;2024-03-22T10:05:23;100356.67;;;15.17;71.86
12536;BME280;6334;48.696;2.114;2024-03-22T10:07:54;100353.40;;;15.13;70.66
12536;BME280;6334;48.696;2.114;2024-03-22T10:10:24;100351.69;;;15.28;69.92
12536;BME280;6334;48.696;2.114;2024-03-22T10:12:54;100346.41;;;15.21;70.20
12536;BME280;6334;48.696;2.114;2024-03-22T10:15:25;100342.95;;;15.57;69.43
12536;BME280;6334;48.696;2.114;2024-03-22T10:17:56;100340.16;;;15.42;70.00
12536;BME280;6334;48.696;2.114;2024-03-22T10:20:26;100340.66;;;15.16;69.18
12536;BME280;6334;48.696;2.114;2024-03-22T10:22:57;100337.52;;;15.32;68.79
12536;BME280;6334;48.696;2.114;2024-03-22T10:25:27;100335.80;;;15.44;68.45
12536;BME280;6334;48.696;2.114;2024-03-22T10:27:57;100330.97;;;15.65;68.78
12536;BME280;6334;48.696;2.114;2024-03-22T10:30:28;100332.23;;;15.56;69.71
12536;BME280;6334;48.696;2.114;2024-03-22T10:32:58;100333.55;;;15.63;71.52
12536;BME280;6334;48.696;2.114;2024-03-22T10:35:29;100335.64;;;15.35;71.97
12536;BME280;6334;48.696;2.114;2024-03-22T10:37:59;100329.29;;;15.71;72.31
12536;BME280;6334;48.696;2.114;2024-03-22T10:40:30;100318.22;;;15.56;71.60
12536;BME280;6334;48.696;2.114;2024-03-22T10:43:00;100323.89;;;15.33;72.31
12536;BME280;6334;48.696;2.114;2024-03-22T10:45:30;100314.95;;;15.59;71.46
12536;BME280;6334;48.696;2.114;2024-03-22T10:48:01;100314.64;;;15.62;71.11
12536;BME280;6334;48.696;2.114;2024-03-22T10:50:31;100316.57;;;15.80;71.46
12536;BME280;6334;48.696;2.114;2024-03-22T10:53:02;100312.50;;;15.65;70.72
12536;BME280;6334;48.696;2.114;2024-03-22T10:55:36;100310.26;;;15.59;70.24
12536;BME280;6334;48.696;2.114;2024-03-22T10:58:03;100306.17;;;15.37;71.47
12536;BME280;6334;48.696;2.114;2024-03-22T11:00:34;100305.65;;;15.41;72.51
12536;BME280;6334;48.696;2.114;2024-03-22T11:03:04;100296.31;;;15.39;71.31
12536;BME280;6334;48.696;2.114;2024-03-22T11:05:34;100297.84;;;15.62;71.71
12536;BME280;6334;48.696;2.114;2024-03-22T11:08:05;100292.95;;;15.39;71.63
12536;BME280;6334;48.696;2.114;2024-03-22T11:10:35;100289.48;;;15.46;72.76
12536;BME280;6334;48.696;2.114;2024-03-22T11:13:06;100292.89;;;15.56;71.80
12536;BME280;6334;48.696;2.114;2024-03-22T11:15:36;100285.66;;;15.39;71.39
12536;BME280;6334;48.696;2.114;2024-03-22T11:18:06;100284.64;;;15.27;71.38
12536;BME280;6334;48.696;2.114;2024-03-22T11:20:37;100287.73;;;15.51;70.39
12536;BME280;6334;48.696;2.114;2024-03-22T11:23:07;100287.47;;;15.55;71.96
12536;BME280;6334;48.696;2.114;2024-03-22T11:25:38;100281.07;;;15.50;72.04
12536;BME280;6334;48.696;2.114;2024-03-22T11:28:08;100286.67;;;15.62;71.17
12536;BME280;6334;48.696;2.114;2024-03-22T11:30:39;100275.23;;;15.22;71.26
12536;BME280;6334;48.696;2.114;2024-03-22T11:33:09;100270.69;;;15.40;70.48
12536;BME280;6334;48.696;2.114;2024-03-22T11:35:40;100270.05;;;15.63;70.00
12536;BME280;6334;48.696;2.114;2024-03-22T11:38:10;100268.89;;;15.62;70.69
12536;BME280;6334;48.696;2.114;2024-03-22T11:40:41;100267.70;;;15.63;69.09
12536;BME280;6334;48.696;2.114;2024-03-22T11:43:11;100268.52;;;15.77;69.27
12536;BME280;6334;48.696;2.114;2024-03-22T11:45:41;100260.28;;;16.05;68.66
12536;BME280;6334;48.696;2.114;2024-03-22T11:48:12;100252.55;;;15.94;68.74
12536;BME280;6334;48.696;2.114;2024-03-22T11:50:42;100249.16;;;15.84;68.24
12536;BME280;6334;48.696;2.114;2024-03-22T11:53:13;100243.88;;;15.84;67.33
12536;BME280;6334;48.696;2.114;2024-03-22T11:55:43;100242.19;;;16.26;67.03
12536;BME280;6334;48.696;2.114;2024-03-22T11:58:14;100238.95;;;15.86;67.48
12536;BME280;6334;48.696;2.114;2024-03-22T12:00:44;100236.28;;;16.07;66.50
12536;BME280;6334;48.696;2.114;2024-03-22T12:03:15;100232.48;;;16.24;65.54
12536;BME280;6334;48.696;2.114;2024-03-22T12:05:45;100230.18;;;16.12;65.26
12536;BME280;6334;48.696;2.114;2024-03-22T12:08:16;100230.77;;;16.28;64.92
12536;BME280;6334;48.696;2.114;2024-03-22T12:10:46;100225.51;;;16.24;63.67
12536;BME280;6334;48.696;2.114;2024-03-22T12:13:17;100221.19;;;16.04;64.51
12536;BME280;6334;48.696;2.114;2024-03-22T12:15:47;100218.38;;;16.37;64.10
12536;BME280;6334;48.696;2.114;2024-03-22T12:18:18;100209.11;;;16.04;64.82
12536;BME280;6334;48.696;2.114;2024-03-22T12:20:48;100214.20;;;16.21;65.09
12536;BME280;6334;48.696;2.114;2024-03-22T12:23:18;100207.32;;;16.21;63.74
12536;BME280;6334;48.696;2.114;2024-03-22T12:25:49;100205.53;;;16.29;63.35
12536;BME280;6334;48.696;2.114;2024-03-22T12:28:22;100205.30;;;16.29;63.46
12536;BME280;6334;48.696;2.114;2024-03-22T12:30:50;100201.97;;;16.40;64.38
12536;BME280;6334;48.696;2.114;2024-03-22T12:33:20;100205.45;;;16.42;64.12
12536;BME280;6334;48.696;2.114;2024-03-22T12:35:51;100197.28;;;16.35;63.46
12536;BME280;6334;48.696;2.114;2024-03-22T12:38:21;100194.99;;;16.53;64.98
12536;BME280;6334;48.696;2.114;2024-03-22T12:40:52;100195.05;;;16.52;65.44
12536;BME280;6334;48.696;2.114;2024-03-22T12:43:22;100185.94;;;16.40;64.92
12536;BME280;6334;48.696;2.114;2024-03-22T12:45:53;100183.09;;;16.58;65.76
12536;BME280;6334;48.696;2.114;2024-03-22T12:48:23;100184.55;;;16.36;66.47
12536;BME280;6334;48.696;2.114;2024-03-22T12:50:54;100177.48;;;16.29;67.64
12536;BME280;6334;48.696;2.114;2024-03-22T12:53:25;100173.85;;;16.47;67.33
12536;BME280;6334;48.696;2.114;2024-03-22T12:55:55;100166.66;;;16.45;66.62
12536;BME280;6334;48.696;2.114;2024-03-22T12:58:25;100162.28;;;16.34;67.08
12536;BME280;6334;48.696;2.114;2024-03-22T13:00:56;100158.13;;;16.55;66.58
12536;BME280;6334;48.696;2.114;2024-03-22T13:03:29;100153.24;;;16.31;67.02
12536;BME280;6334;48.696;2.114;2024-03-22T13:05:59;100146.74;;;16.40;66.74
12536;BME280;6334;48.696;2.114;2024-03-22T13:08:31;100137.91;;;16.38;67.60
12536;BME280;6334;48.696;2.114;2024-03-22T13:11:01;100140.75;;;16.43;67.00
12536;BME280;6334;48.696;2.114;2024-03-22T13:13:31;100139.28;;;16.42;64.91
12536;BME280;6334;48.696;2.114;2024-03-22T13:16:01;100124.94;;;16.39;64.52
12536;BME280;6334;48.696;2.114;2024-03-22T13:18:32;100124.14;;;16.43;65.19
12536;BME280;6334;48.696;2.114;2024-03-22T13:21:02;100120.31;;;16.37;64.22
12536;BME280;6334;48.696;2.114;2024-03-22T13:23:32;100118.37;;;16.56;64.13
12536;BME280;6334;48.696;2.114;2024-03-22T13:26:03;100115.42;;;16.26;63.14
12536;BME280;6334;48.696;2.114;2024-03-22T13:28:33;100103.56;;;16.23;64.05
12536;BME280;6334;48.696;2.114;2024-03-22T13:31:04;100096.77;;;16.40;63.56
12536;BME280;6334;48.696;2.114;2024-03-22T13:33:34;100093.72;;;16.46;64.22
12536;BME280;6334;48.696;2.114;2024-03-22T13:36:04;100093.37;;;16.34;64.63
12536;BME280;6334;48.696;2.114;2024-03-22T13:41:12;100080.02;;;16.55;61.84
12536;BME280;6334;48.696;2.114;2024-03-22T13:43:45;100081.08;;;16.59;62.02